NCAR-RAP Real-Time Weather Data

Output produced by METARs form (29 July 2014  10:41 UTC)
found at http://weather.rap.ucar.edu/surface/
 
Conditions at: KLOU observed 29 July 2014  09:53 UTC
Temperature: 12.8°C (55°F)
Dewpoint: 8.9°C (48°F) [RH = 77%]
Pressure (altimeter): 30.06 inches Hg (1018.0 mb)
[Sea-level pressure: 1017.4 mb]
Winds: from the NW (310 degrees) at 3 MPH (3 knots; 1.6 m/s)
Visibility: 10 or more miles (16+ km)
Ceiling: at least 12,000 feet AGL
Clouds: sky clear below 12,000 feet AGL
Present Weather: automated observation with no human augmentation;
there may or may not be significant weather present at this time
KLOU 290953Z AUTO 31003KT 10SM CLR 13/09 A3006 RMK AO2 SLP174 T01280089